Time;durP1;ratioP1;P1;durP2;ratioP2;P2;SDS_P1;SDS_P2;PMS_P1;PMS_P2;Temp;Humidity;BMP_temperature;BMP_pressure;BME280_temperature;BME280_humidity;BME280_pressure;Samples;Min_cycle;Max_cycle;Signal;HPM_P1;HPM_P2
2023/01/03 00:02:11;;;;;;;15.33;8.80;;;14.10;54.50;;;;;;5070889;28;20866;-88
2023/01/03 00:04:39;;;;;;;8.53;4.60;;;14.30;54.10;;;;;;5064313;27;20438;-87
2023/01/03 00:07:06;;;;;;;15.20;9.00;;;14.40;53.90;;;;;;5043598;28;20480;-88
2023/01/03 00:09:33;;;;;;;8.00;4.70;;;14.60;53.70;;;;;;5052094;27;20489;-88
2023/01/03 00:14:44;;;;;;;10.77;6.23;;;14.70;53.50;;;;;;5074912;28;20992;-88
2023/01/03 00:17:12;;;;;;;12.33;6.20;;;14.50;53.10;;;;;;5085681;28;20459;-90
2023/01/03 00:19:42;;;;;;;13.47;7.00;;;14.50;53.30;;;;;;5086154;28;20454;-90
2023/01/03 00:22:10;;;;;;;10.77;5.83;;;14.60;53.40;;;;;;5055457;28;20467;-88
2023/01/03 00:24:38;;;;;;;11.33;7.23;;;14.50;53.50;;;;;;5052012;27;20537;-89
2023/01/03 00:27:05;;;;;;;6.50;3.77;;;14.50;53.60;;;;;;5048696;28;20469;-88
2023/01/03 00:29:32;;;;;;;7.43;4.27;;;14.40;53.60;;;;;;5058207;28;20453;-89
2023/01/03 00:31:59;;;;;;;9.27;4.37;;;14.30;53.60;;;;;;5053002;28;20450;-88
2023/01/03 00:34:26;;;;;;;18.20;8.17;;;14.40;53.50;;;;;;5052707;28;20458;-87
2023/01/03 00:36:55;;;;;;;13.70;5.43;;;14.50;53.40;;;;;;5055232;28;21077;-89
2023/01/03 00:39:22;;;;;;;6.70;3.93;;;14.50;53.10;;;;;;5059821;27;20535;-89
2023/01/03 00:41:49;;;;;;;21.53;9.57;;;14.10;53.60;;;;;;5067896;28;20469;-88
2023/01/03 00:44:17;;;;;;;55.03;22.57;;;14.10;53.80;;;;;;5064719;28;20955;-88
2023/01/03 00:46:44;;;;;;;32.17;15.73;;;14.10;53.70;;;;;;5068381;28;20542;-89
2023/01/03 00:49:12;;;;;;;33.47;14.80;;;14.00;53.80;;;;;;5086412;28;20439;-88
2023/01/03 00:51:41;;;;;;;11.43;6.37;;;13.80;54.20;;;;;;5105218;27;20803;-87
2023/01/03 00:54:10;;;;;;;40.97;17.90;;;13.60;54.50;;;;;;5053073;28;20477;-89
2023/01/03 00:56:40;;;;;;;17.70;11.80;;;13.60;54.50;;;;;;5049406;28;20451;-88
2023/01/03 00:59:08;;;;;;;16.57;11.60;;;13.60;54.70;;;;;;5042219;28;20450;-86
2023/01/03 01:01:38;;;;;;;9.60;6.43;;;13.70;54.50;;;;;;5061446;28;20442;-89
2023/01/03 01:04:07;;;;;;;2.30;2.10;;;13.70;54.40;;;;;;5069063;28;20459;-88
2023/01/03 01:06:36;;;;;;;3.60;2.57;;;13.40;54.60;;;;;;5066436;28;20439;-88
2023/01/03 01:09:07;;;;;;;2.37;1.70;;;13.50;54.80;;;;;;5082867;28;20523;-88
2023/01/03 01:11:35;;;;;;;1.90;1.80;;;13.50;55.00;;;;;;5064099;28;20469;-87
2023/01/03 01:14:02;;;;;;;3.87;2.97;;;13.60;54.50;;;;;;5068426;28;20478;-89
2023/01/03 01:16:31;;;;;;;6.40;2.70;;;13.70;54.20;;;;;;5052347;27;20529;-87
2023/01/03 01:18:59;;;;;;;3.10;2.83;;;13.70;53.90;;;;;;5050777;28;20978;-88
2023/01/03 01:21:28;;;;;;;2.77;2.40;;;13.70;53.90;;;;;;5069266;28;20827;-87
2023/01/03 01:23:56;;;;;;;3.47;3.17;;;13.80;53.90;;;;;;5072521;28;20455;-89
2023/01/03 01:26:25;;;;;;;3.03;2.73;;;13.60;54.00;;;;;;5050007;27;20916;-88
2023/01/03 01:28:54;;;;;;;2.53;2.33;;;13.70;54.00;;;;;;5066274;28;20474;-89
2023/01/03 01:31:23;;;;;;;3.70;3.40;;;13.70;54.10;;;;;;5084079;28;20462;-87
2023/01/03 01:33:50;;;;;;;6.77;3.70;;;13.70;54.00;;;;;;5078694;28;20454;-88
2023/01/03 01:36:19;;;;;;;3.67;3.30;;;13.70;54.10;;;;;;5071084;28;20461;-88
2023/01/03 01:38:48;;;;;;;4.83;3.77;;;13.60;53.90;;;;;;5066978;28;20534;-88
2023/01/03 01:44:36;;;;;;;3.20;2.90;;;13.60;54.00;;;;;;5069093;27;20780;-88
2023/01/03 01:47:02;;;;;;;2.30;2.00;;;13.50;55.20;;;;;;5017320;28;20946;-90
2023/01/03 01:49:29;;;;;;;2.10;1.90;;;13.60;55.30;;;;;;5039856;28;20442;-86
2023/01/03 01:51:57;;;;;;;2.57;2.20;;;13.60;55.30;;;;;;5077562;28;20439;-91
2023/01/03 01:54:24;;;;;;;2.07;1.83;;;13.70;55.30;;;;;;5069826;28;20840;-87
2023/01/03 01:56:53;;;;;;;2.40;2.20;;;13.80;55.10;;;;;;5085606;28;20481;-88
2023/01/03 01:59:21;;;;;;;6.80;2.27;;;13.70;55.20;;;;;;5086147;28;20453;-88
2023/01/03 02:01:51;;;;;;;1.73;1.63;;;13.70;55.40;;;;;;5050655;28;21765;-88
2023/01/03 02:04:23;;;;;;;3.10;2.60;;;13.70;55.40;;;;;;5051871;28;20490;-88
2023/01/03 02:06:50;;;;;;;2.97;1.93;;;13.70;55.60;;;;;;5049963;28;20487;-89
2023/01/03 02:09:17;;;;;;;2.00;1.83;;;13.60;55.60;;;;;;5085156;28;20454;-89
2023/01/03 02:13:04;;;;;;;4.00;2.40;;;13.50;55.80;;;;;;5082930;28;20737;-87
2023/01/03 02:14:52;;;;;;;4.40;2.47;;;13.60;55.80;;;;;;5078750;28;20882;-88
2023/01/03 02:17:31;;;;;;;2.70;2.33;;;13.40;56.20;;;;;;5067510;28;20459;-88
2023/01/03 02:20:23;;;;;;;4.50;2.60;;;13.50;56.30;;;;;;5052144;28;20454;-89
2023/01/03 02:23:20;;;;;;;4.90;2.30;;;13.70;55.90;;;;;;5050503;28;20820;-89
2023/01/03 02:26:15;;;;;;;2.10;1.90;;;13.60;56.10;;;;;;5065810;28;20449;-87
2023/01/03 02:29:11;;;;;;;2.10;1.90;;;13.50;56.60;;;;;;5069921;28;20466;-88
2023/01/03 02:31:45;;;;;;;2.10;2.00;;;13.30;56.90;;;;;;5050729;28;21893;-90
2023/01/03 02:34:23;;;;;;;3.87;2.00;;;13.40;56.60;;;;;;5083432;28;20537;-86
2023/01/03 02:37:00;;;;;;;2.23;2.03;;;13.30;56.70;;;;;;5049278;28;20478;-89
2023/01/03 02:39:34;;;;;;;1.97;1.77;;;13.10;57.00;;;;;;5041761;28;20451;-87
2023/01/03 02:45:04;;;;;;;1.83;1.73;;;13.20;56.90;;;;;;5068244;28;20826;-90
2023/01/03 02:47:39;;;;;;;2.30;2.10;;;13.20;56.70;;;;;;5074986;28;20565;-87
2023/01/03 02:50:11;;;;;;;4.57;2.30;;;12.90;57.50;;;;;;5052933;28;20442;-88
2023/01/03 02:52:40;;;;;;;1.80;1.70;;;12.90;57.60;;;;;;5049649;28;20446;-88
2023/01/03 02:55:13;;;;;;;2.17;2.00;;;13.00;57.40;;;;;;5076637;28;20497;-90
2023/01/03 02:57:45;;;;;;;2.00;1.80;;;13.00;57.40;;;;;;5071283;27;20469;-88
2023/01/03 03:00:15;;;;;;;3.33;2.10;;;13.20;57.10;;;;;;5089142;28;20457;-87
2023/01/03 03:02:50;;;;;;;2.83;2.17;;;13.30;56.80;;;;;;5089143;27;20450;-88
2023/01/03 03:05:24;;;;;;;2.40;1.77;;;13.40;56.50;;;;;;5093321;28;21000;-88
2023/01/03 03:07:52;;;;;;;1.97;1.77;;;13.50;56.10;;;;;;5085274;28;20468;-89
2023/01/03 03:13:15;;;;;;;2.00;1.90;;;13.70;55.80;;;;;;5071625;28;20435;-90
2023/01/03 03:15:50;;;;;;;1.43;1.33;;;13.80;55.50;;;;;;5074991;28;20494;-89
2023/01/03 03:18:22;;;;;;;2.37;1.70;;;13.80;55.20;;;;;;5088718;28;20470;-88
2023/01/03 03:26:25;;;;;;;1.90;1.80;;;13.70;54.60;;;;;;5054506;28;20430;-85
2023/01/03 03:28:58;;;;;;;4.73;2.00;;;13.30;55.40;;;;;;5069966;28;20486;-88
2023/01/03 03:31:32;;;;;;;2.10;1.90;;;13.10;55.80;;;;;;5072024;28;20446;-87
2023/01/03 03:34:06;;;;;;;2.07;1.50;;;13.00;56.30;;;;;;5069493;28;20453;-88
2023/01/03 03:36:39;;;;;;;2.87;2.20;;;12.90;56.50;;;;;;5069038;28;20497;-87
2023/01/03 03:44:59;;;;;;;2.43;1.80;;;12.70;57.00;;;;;;5054528;28;20530;-88
2023/01/03 03:45:01;;;;;;;1.97;1.77;;;12.80;57.00;;;;;;5075722;28;20435;-89
2023/01/03 03:47:36;;;;;;;1.90;1.70;;;12.80;57.00;;;;;;5045552;28;20471;-88
2023/01/03 03:50:10;;;;;;;2.07;1.97;;;12.80;57.10;;;;;;5071623;28;20441;-86
2023/01/03 03:52:38;;;;;;;1.60;1.50;;;12.60;57.70;;;;;;5084796;28;20870;-87
2023/01/03 03:55:10;;;;;;;2.33;1.73;;;12.70;57.50;;;;;;5053928;28;20463;-90
2023/01/03 03:57:43;;;;;;;3.10;1.87;;;12.80;57.50;;;;;;5052063;27;20469;-88
2023/01/03 04:00:16;;;;;;;1.90;1.80;;;12.80;58.10;;;;;;5072702;28;20882;-88
2023/01/03 04:02:46;;;;;;;2.30;2.10;;;12.80;57.40;;;;;;5055099;27;20485;-88
2023/01/03 04:05:18;;;;;;;1.83;1.73;;;12.90;57.10;;;;;;5079596;28;20455;-90
2023/01/03 04:07:46;;;;;;;1.87;1.77;;;12.90;57.20;;;;;;5061097;28;20454;-88
2023/01/03 04:10:18;;;;;;;2.33;1.90;;;12.80;57.30;;;;;;5086384;28;20441;-88
2023/01/03 04:12:46;;;;;;;3.77;2.20;;;12.90;57.20;;;;;;5050886;28;20967;-90
2023/01/03 04:15:14;;;;;;;6.50;5.10;;;13.00;57.00;;;;;;5063189;28;20810;-89
2023/01/03 04:17:41;;;;;;;15.17;7.27;;;13.00;56.40;;;;;;5067969;27;20558;-88
2023/01/03 04:20:10;;;;;;;7.67;4.87;;;13.00;56.00;;;;;;5070203;28;20449;-88
2023/01/03 04:22:38;;;;;;;24.80;13.40;;;13.00;56.10;;;;;;5070041;27;20566;-88
2023/01/03 04:25:06;;;;;;;22.90;11.80;;;12.90;56.90;;;;;;5044569;28;20450;-88
2023/01/03 04:27:33;;;;;;;15.13;8.37;;;12.90;56.50;;;;;;5065012;28;20467;-87
2023/01/03 04:30:00;;;;;;;19.93;10.40;;;13.00;56.00;;;;;;5086674;28;20593;-87
2023/01/03 04:32:27;;;;;;;18.87;11.40;;;13.00;55.70;;;;;;5052235;28;20928;-88
2023/01/03 04:34:54;;;;;;;11.10;5.77;;;13.10;55.60;;;;;;5083235;28;20478;-88
2023/01/03 04:37:21;;;;;;;2.73;2.43;;;13.20;55.20;;;;;;5069711;28;20463;-87
2023/01/03 04:39:50;;;;;;;7.20;2.20;;;13.10;54.60;;;;;;5073316;28;20530;-90
2023/01/03 04:45:01;;;;;;;2.00;1.80;;;12.90;55.10;;;;;;5053058;28;21056;-88
2023/01/03 04:47:28;;;;;;;3.40;2.17;;;12.90;55.20;;;;;;5068802;28;20474;-88
2023/01/03 04:49:55;;;;;;;3.73;2.17;;;12.80;55.30;;;;;;5060510;28;20451;-88
2023/01/03 04:52:22;;;;;;;65.63;24.27;;;12.80;55.20;;;;;;5052553;28;20443;-87
2023/01/03 04:54:51;;;;;;;28.40;9.97;;;12.80;55.30;;;;;;5065237;27;20438;-88
2023/01/03 04:57:17;;;;;;;3.80;3.17;;;12.80;55.00;;;;;;5087885;28;20823;-88
2023/01/03 04:59:44;;;;;;;19.67;9.83;;;12.80;55.00;;;;;;5053711;27;20450;-88
2023/01/03 05:02:11;;;;;;;22.43;10.67;;;12.90;55.00;;;;;;5070742;28;20616;-90
2023/01/03 05:04:38;;;;;;;34.87;17.30;;;12.90;54.60;;;;;;5050170;27;20652;-89
2023/01/03 05:07:05;;;;;;;58.13;23.97;;;12.90;54.40;;;;;;5068042;28;20469;-88
2023/01/03 05:09:32;;;;;;;49.80;20.90;;;12.90;54.90;;;;;;5058311;28;20451;-86
2023/01/03 05:12:01;;;;;;;29.73;14.10;;;12.80;54.50;;;;;;5053655;28;20465;-89
2023/01/03 05:14:29;;;;;;;14.57;9.00;;;12.80;54.80;;;;;;5051764;28;20529;-88
2023/01/03 05:16:55;;;;;;;14.10;8.63;;;12.80;54.50;;;;;;5056093;28;20474;-88
2023/01/03 05:19:22;;;;;;;10.70;5.53;;;12.70;54.50;;;;;;5043853;28;20473;-88
2023/01/03 05:27:19;;;;;;;9.57;5.63;;;12.60;54.30;;;;;;5070537;28;20461;-90
2023/01/03 05:29:51;;;;;;;12.17;6.30;;;12.40;55.20;;;;;;5067127;28;20452;-89
2023/01/03 05:32:18;;;;;;;12.37;5.93;;;12.40;54.90;;;;;;5056018;28;20496;-88
2023/01/03 05:34:44;;;;;;;9.20;6.53;;;12.40;54.40;;;;;;5065148;27;20973;-87
2023/01/03 05:37:11;;;;;;;8.07;5.57;;;12.50;54.30;;;;;;5055886;28;20471;-87
2023/01/03 05:39:38;;;;;;;6.70;3.60;;;12.20;55.00;;;;;;5087347;28;20446;-87
2023/01/03 05:42:06;;;;;;;4.60;3.87;;;12.00;55.50;;;;;;5057167;28;20865;-88
2023/01/03 05:44:35;;;;;;;5.07;3.60;;;12.00;55.10;;;;;;5073122;27;20455;-89
2023/01/03 05:47:04;;;;;;;9.17;5.70;;;12.00;55.20;;;;;;5067284;28;20465;-87
2023/01/03 05:49:32;;;;;;;50.97;16.43;;;12.00;55.00;;;;;;5053444;28;20447;-87
2023/01/03 05:51:59;;;;;;;15.07;8.17;;;12.00;54.80;;;;;;5090113;28;20462;-90
2023/01/03 05:54:26;;;;;;;7.43;4.47;;;11.60;55.90;;;;;;5090438;28;20439;-87
2023/01/03 05:56:53;;;;;;;3.93;3.63;;;11.20;57.10;;;;;;5103337;28;20548;-87
2023/01/03 05:59:21;;;;;;;4.73;2.57;;;10.90;57.80;;;;;;5072454;28;20971;-87
2023/01/03 06:01:50;;;;;;;56.90;16.07;;;10.70;58.30;;;;;;5053595;28;20481;-88
2023/01/03 06:04:17;;;;;;;57.53;18.20;;;10.90;58.00;;;;;;5072120;28;20459;-88
2023/01/03 06:06:44;;;;;;;44.00;22.93;;;11.10;57.20;;;;;;5067242;28;20918;-90
2023/01/03 06:09:11;;;;;;;47.53;25.40;;;11.20;56.50;;;;;;5071351;28;20439;-87
2023/01/03 06:11:39;;;;;;;7.50;5.90;;;11.20;56.70;;;;;;5055275;28;20892;-89
2023/01/03 06:14:06;;;;;;;11.80;7.43;;;10.70;57.60;;;;;;5053573;28;20953;-87
2023/01/03 06:19:19;;;;;;;7.40;6.70;;;10.70;57.80;;;;;;5077646;28;20439;-87
2023/01/03 06:21:46;;;;;;;8.23;6.20;;;10.80;58.10;;;;;;5065888;28;21027;-87
2023/01/03 06:24:13;;;;;;;15.90;8.80;;;10.90;57.90;;;;;;5067227;28;20439;-88
2023/01/03 06:26:40;;;;;;;10.90;7.60;;;10.80;58.10;;;;;;5085136;28;20439;-87
2023/01/03 06:29:07;;;;;;;5.20;4.43;;;10.90;58.20;;;;;;5072072;28;20454;-88
2023/01/03 06:31:34;;;;;;;3.77;3.47;;;10.80;58.50;;;;;;5075384;27;20430;-85
2023/01/03 06:34:02;;;;;;;4.43;3.77;;;10.40;58.60;;;;;;5058348;28;20857;-88
2023/01/03 06:36:33;;;;;;;8.33;3.30;;;10.30;59.20;;;;;;5088049;28;20467;-87
2023/01/03 06:39:00;;;;;;;3.73;3.20;;;10.50;59.20;;;;;;5075306;28;20511;-87
2023/01/03 06:41:27;;;;;;;6.93;4.93;;;10.60;58.80;;;;;;5073830;28;20443;-88
2023/01/03 06:43:54;;;;;;;15.13;8.53;;;10.90;58.00;;;;;;5074626;28;20990;-87
2023/01/03 06:54:37;;;;;;;4.97;4.53;;;10.90;58.30;;;;;;5063181;27;20451;-88
2023/01/03 06:57:05;;;;;;;7.53;5.50;;;10.40;59.90;;;;;;5075893;28;20606;-87
2023/01/03 06:59:32;;;;;;;7.40;4.83;;;10.20;61.40;;;;;;5075472;28;20488;-88
2023/01/03 07:02:00;;;;;;;4.93;4.43;;;10.50;60.70;;;;;;5089968;28;20802;-88
2023/01/03 07:04:27;;;;;;;13.80;6.37;;;10.90;59.40;;;;;;5075156;28;20810;-86
2023/01/03 07:06:55;;;;;;;10.30;6.50;;;11.20;58.50;;;;;;5091298;27;20484;-88
2023/01/03 07:09:23;;;;;;;11.37;6.03;;;11.30;58.00;;;;;;5074314;28;20487;-88
2023/01/03 07:11:50;;;;;;;9.13;6.10;;;11.40;57.90;;;;;;5056019;27;20939;-87
2023/01/03 07:14:17;;;;;;;9.73;5.70;;;11.40;58.00;;;;;;5062930;28;20443;-88
2023/01/03 07:16:46;;;;;;;8.67;5.80;;;11.60;57.70;;;;;;5091127;27;20491;-91
2023/01/03 07:19:15;;;;;;;6.20;4.37;;;11.70;57.30;;;;;;5092692;28;20804;-88
2023/01/03 07:21:42;;;;;;;7.97;6.53;;;11.60;57.40;;;;;;5090498;27;20456;-88
2023/01/03 07:24:13;;;;;;;8.90;6.80;;;11.20;57.90;;;;;;5092086;28;20439;-86
2023/01/03 07:26:40;;;;;;;13.67;9.27;;;11.20;58.20;;;;;;5066422;27;20436;-89
2023/01/03 07:29:09;;;;;;;9.97;9.00;;;11.40;58.00;;;;;;5103848;27;20457;-88
2023/01/03 07:31:39;;;;;;;9.80;7.03;;;11.30;58.00;;;;;;5069066;28;20454;-87
2023/01/03 07:34:07;;;;;;;7.23;6.07;;;11.30;58.20;;;;;;5089367;28;20447;-86
2023/01/03 07:36:34;;;;;;;10.10;6.43;;;11.40;58.00;;;;;;5092234;28;20466;-88
2023/01/03 07:39:01;;;;;;;16.90;10.67;;;11.40;58.20;;;;;;5104877;28;21007;-90
2023/01/03 07:44:10;;;;;;;8.10;5.00;;;11.40;58.20;;;;;;5087212;28;20458;-89
2023/01/03 07:46:38;;;;;;;5.20;4.70;;;11.20;58.60;;;;;;5062607;28;21162;-88
2023/01/03 07:49:05;;;;;;;7.00;6.30;;;11.40;58.30;;;;;;5071664;28;20820;-87
2023/01/03 07:51:33;;;;;;;7.77;6.37;;;11.60;58.40;;;;;;5054118;28;20450;-87
2023/01/03 07:54:01;;;;;;;14.00;9.50;;;11.60;58.20;;;;;;5077522;28;20499;-89
2023/01/03 07:56:29;;;;;;;16.87;12.13;;;11.80;58.70;;;;;;5086811;28;20450;-88
2023/01/03 07:58:56;;;;;;;15.67;10.97;;;11.90;57.90;;;;;;5060758;28;20533;-88
2023/01/03 08:01:24;;;;;;;22.20;17.13;;;12.00;57.60;;;;;;5086522;28;20446;-88
2023/01/03 08:03:52;;;;;;;55.27;35.23;;;12.10;57.90;;;;;;5065481;28;20465;-89
2023/01/03 08:06:21;;;;;;;23.47;13.70;;;12.20;58.10;;;;;;5057201;28;20450;-89
2023/01/03 08:13:16;;;;;;;10.13;8.13;;;12.20;58.00;;;;;;5070863;28;20558;-88
2023/01/03 08:14:23;;;;;;;4.10;3.57;;;11.30;58.90;;;;;;5086707;28;20453;-89
2023/01/03 08:16:50;;;;;;;3.40;3.10;;;11.40;59.20;;;;;;5070923;28;20489;-88
2023/01/03 08:19:17;;;;;;;7.43;5.30;;;11.60;58.70;;;;;;5067782;28;20529;-88
2023/01/03 08:21:44;;;;;;;7.77;6.60;;;11.70;58.20;;;;;;5068907;28;20960;-88
2023/01/03 08:24:11;;;;;;;16.83;9.07;;;11.70;58.00;;;;;;5086911;28;20848;-89
2023/01/03 08:26:39;;;;;;;14.70;8.63;;;11.80;58.10;;;;;;5052637;28;20439;-88
2023/01/03 08:29:06;;;;;;;8.90;6.27;;;11.70;58.30;;;;;;5056493;28;20458;-87
2023/01/03 08:31:37;;;;;;;6.37;3.70;;;11.40;58.80;;;;;;5095676;28;20443;-88
2023/01/03 08:34:06;;;;;;;4.20;3.40;;;11.10;59.40;;;;;;5056074;28;20483;-87
2023/01/03 08:36:37;;;;;;;5.13;3.13;;;11.00;59.80;;;;;;5088280;28;20562;-88
2023/01/03 08:39:06;;;;;;;3.87;3.47;;;10.80;60.20;;;;;;5067855;28;20447;-88
2023/01/03 08:41:38;;;;;;;4.53;3.93;;;10.90;60.20;;;;;;5069404;28;20443;-89
2023/01/03 08:44:08;;;;;;;5.27;4.77;;;11.00;60.10;;;;;;5053555;28;20484;-89
2023/01/03 08:46:37;;;;;;;7.30;5.30;;;11.40;59.20;;;;;;5071077;28;20446;-91
2023/01/03 08:49:04;;;;;;;37.13;18.43;;;11.40;58.70;;;;;;5069115;28;20451;-89
2023/01/03 08:51:31;;;;;;;16.50;11.93;;;11.30;58.60;;;;;;5083326;28;20463;-88
2023/01/03 08:53:58;;;;;;;9.70;7.10;;;11.30;58.90;;;;;;5059151;28;20451;-89
2023/01/03 08:56:25;;;;;;;7.00;5.50;;;11.50;59.10;;;;;;5046845;28;20451;-87
2023/01/03 08:58:52;;;;;;;8.97;5.77;;;11.70;58.60;;;;;;5046968;28;20461;-89
2023/01/03 09:01:20;;;;;;;7.50;6.60;;;11.70;58.80;;;;;;5069309;28;20451;-88
2023/01/03 09:03:47;;;;;;;8.50;5.77;;;11.70;58.90;;;;;;5068689;28;20463;-88
2023/01/03 09:06:14;;;;;;;7.53;4.90;;;11.70;58.80;;;;;;5086075;28;20457;-88
2023/01/03 09:08:41;;;;;;;7.43;4.77;;;11.50;59.00;;;;;;5052443;28;20482;-88
2023/01/03 09:11:09;;;;;;;5.10;4.50;;;11.50;59.20;;;;;;5053016;28;20522;-89
2023/01/03 09:13:37;;;;;;;10.43;7.13;;;11.50;59.00;;;;;;5071896;28;20450;-88
2023/01/03 09:16:05;;;;;;;7.20;6.47;;;11.70;58.90;;;;;;5069372;28;20955;-88
2023/01/03 09:18:34;;;;;;;8.57;6.03;;;11.80;58.50;;;;;;5067957;28;20757;-88
2023/01/03 09:21:02;;;;;;;5.00;4.50;;;11.80;58.30;;;;;;5086693;28;20446;-88
2023/01/03 09:23:29;;;;;;;5.77;5.27;;;11.80;58.50;;;;;;5044442;28;20447;-88
2023/01/03 09:25:56;;;;;;;7.77;6.90;;;11.90;58.40;;;;;;5067395;28;20446;-89
2023/01/03 09:28:23;;;;;;;9.33;4.93;;;12.10;58.20;;;;;;5085803;28;20469;-87
2023/01/03 09:30:50;;;;;;;8.00;5.53;;;12.10;57.80;;;;;;5066903;28;20454;-89
2023/01/03 09:33:18;;;;;;;9.23;6.10;;;12.10;57.80;;;;;;5070164;28;20471;-88
2023/01/03 09:35:46;;;;;;;8.40;5.63;;;12.10;57.30;;;;;;5098207;27;20752;-89
2023/01/03 09:38:13;;;;;;;7.10;6.03;;;12.10;57.50;;;;;;5057989;28;20462;-89
2023/01/03 09:40:44;;;;;;;8.57;6.57;;;12.20;57.20;;;;;;5066871;27;20450;-88
2023/01/03 09:43:15;;;;;;;7.53;6.67;;;12.20;56.90;;;;;;5068958;28;20442;-88
2023/01/03 09:45:45;;;;;;;8.37;6.83;;;12.20;56.80;;;;;;5082418;28;20453;-87
2023/01/03 09:48:16;;;;;;;8.00;6.40;;;12.20;56.60;;;;;;5078724;28;20459;-88
2023/01/03 09:50:44;;;;;;;9.87;7.70;;;12.20;56.40;;;;;;5084318;28;20840;-88
2023/01/03 10:05:03;;;;;;;12.13;7.33;;;12.10;56.70;;;;;;5066603;28;20511;-88
2023/01/03 10:07:48;;;;;;;8.80;7.17;;;12.10;56.80;;;;;;5042303;28;20493;-88
2023/01/03 10:10:28;;;;;;;8.80;7.10;;;12.10;56.60;;;;;;5045246;28;20462;-88
2023/01/03 10:13:07;;;;;;;11.77;7.57;;;12.00;56.50;;;;;;5067300;28;20450;-88
2023/01/03 10:15:44;;;;;;;7.87;6.87;;;12.00;56.80;;;;;;5085982;28;20539;-89
2023/01/03 10:18:24;;;;;;;8.13;6.73;;;12.00;56.70;;;;;;5043989;28;20474;-88
2023/01/03 10:20:54;;;;;;;8.17;5.27;;;12.10;57.00;;;;;;5041189;28;20503;-89
2023/01/03 10:23:21;;;;;;;7.37;5.80;;;12.10;56.90;;;;;;5051811;28;20451;-88
2023/01/03 10:25:49;;;;;;;6.90;5.67;;;12.20;56.80;;;;;;5051911;28;20443;-88
2023/01/03 10:28:21;;;;;;;11.73;8.43;;;12.10;56.50;;;;;;5084901;28;20497;-88
2023/01/03 10:30:59;;;;;;;9.73;7.57;;;12.10;56.40;;;;;;5065823;28;20538;-88
2023/01/03 10:33:32;;;;;;;7.97;5.30;;;12.10;56.60;;;;;;5067772;28;20435;-88
2023/01/03 10:35:59;;;;;;;6.47;5.07;;;12.10;56.50;;;;;;5049309;28;20463;-89
2023/01/03 10:38:26;;;;;;;9.90;5.90;;;12.10;56.70;;;;;;5068249;28;20478;-87
2023/01/03 10:40:58;;;;;;;5.67;5.07;;;12.20;56.70;;;;;;5049618;28;20450;-88
2023/01/03 10:43:31;;;;;;;7.43;5.40;;;12.20;56.70;;;;;;5057298;28;20447;-88
2023/01/03 10:46:00;;;;;;;5.70;4.97;;;12.20;56.70;;;;;;5059371;28;20444;-88
2023/01/03 10:48:36;;;;;;;5.90;4.70;;;12.30;56.80;;;;;;5068286;28;20471;-89
2023/01/03 10:51:06;;;;;;;8.60;5.10;;;12.40;56.60;;;;;;5046429;28;20454;-88
2023/01/03 10:53:40;;;;;;;7.63;5.70;;;12.40;56.40;;;;;;5052441;28;20440;-88
2023/01/03 10:56:14;;;;;;;9.40;6.50;;;12.50;56.40;;;;;;5080072;28;20438;-87
2023/01/03 10:58:41;;;;;;;8.03;5.77;;;12.50;56.60;;;;;;5066410;28;20902;-87
2023/01/03 11:01:20;;;;;;;7.50;6.23;;;12.50;56.70;;;;;;5068750;28;20454;-88
2023/01/03 11:04:06;;;;;;;8.60;5.97;;;12.60;56.50;;;;;;5069782;28;20459;-88
2023/01/03 11:06:33;;;;;;;10.03;6.47;;;12.50;56.10;;;;;;5054638;28;20470;-87
2023/01/03 11:09:03;;;;;;;7.73;5.50;;;12.50;56.30;;;;;;5073423;28;20554;-87
2023/01/03 11:11:33;;;;;;;3.37;2.70;;;12.50;56.50;;;;;;5070167;28;21259;-87
2023/01/03 11:14:25;;;;;;;7.10;3.57;;;12.20;56.60;;;;;;5054796;27;21093;-88
2023/01/03 11:16:58;;;;;;;14.27;10.17;;;11.60;58.60;;;;;;5075257;28;20471;-87
2023/01/03 11:19:27;;;;;;;7.70;6.00;;;11.60;59.00;;;;;;5056313;28;20438;-88
2023/01/03 11:22:01;;;;;;;9.90;4.77;;;11.90;58.80;;;;;;5072445;28;20451;-88
2023/01/03 11:24:52;;;;;;;6.87;4.93;;;12.20;58.10;;;;;;5091490;28;20832;-88
2023/01/03 11:27:29;;;;;;;5.27;3.70;;;12.20;57.90;;;;;;5071398;28;20468;-88
2023/01/03 11:30:08;;;;;;;4.10;3.50;;;12.30;57.40;;;;;;5070364;28;20985;-88
2023/01/03 11:32:51;;;;;;;4.17;3.77;;;12.50;57.40;;;;;;5075121;28;20451;-89
2023/01/03 11:35:31;;;;;;;3.47;3.17;;;12.70;57.20;;;;;;5047418;28;20451;-88
2023/01/03 11:38:10;;;;;;;4.00;3.60;;;12.60;56.80;;;;;;5105562;28;21768;-88
2023/01/03 11:40:46;;;;;;;4.63;3.87;;;12.50;57.20;;;;;;5071343;28;20473;-88
2023/01/03 11:43:26;;;;;;;3.50;3.20;;;12.30;57.70;;;;;;5058172;28;20461;-87
2023/01/03 11:46:15;;;;;;;4.13;3.10;;;12.10;58.10;;;;;;5054458;28;20522;-88
2023/01/03 11:49:08;;;;;;;5.03;3.40;;;12.30;58.20;;;;;;5071071;28;20446;-89
2023/01/03 11:51:42;;;;;;;5.60;4.30;;;12.40;58.00;;;;;;5090417;28;20450;-88
2023/01/03 11:54:37;;;;;;;4.37;3.77;;;12.50;58.00;;;;;;5073830;28;20454;-88
2023/01/03 11:57:12;;;;;;;4.57;3.40;;;12.20;58.30;;;;;;5065080;27;20643;-87
2023/01/03 11:59:58;;;;;;;3.63;3.33;;;12.10;58.50;;;;;;5091143;28;20469;-88
2023/01/03 12:03:08;;;;;;;4.00;3.00;;;12.20;58.30;;;;;;5053954;28;20443;-86
2023/01/03 12:05:47;;;;;;;5.27;2.87;;;12.30;58.30;;;;;;5073310;28;20444;-88
2023/01/03 12:08:42;;;;;;;17.43;7.97;;;12.50;58.20;;;;;;5071722;28;20462;-88
2023/01/03 12:11:20;;;;;;;5.30;3.43;;;12.50;58.40;;;;;;5080705;28;20450;-88
2023/01/03 12:13:55;;;;;;;5.30;3.80;;;12.80;58.40;;;;;;5069965;28;20446;-88
2023/01/03 12:16:28;;;;;;;7.33;3.80;;;13.00;57.70;;;;;;5055832;28;20975;-87
2023/01/03 12:19:02;;;;;;;5.90;4.40;;;13.10;57.80;;;;;;5071272;27;20455;-87
2023/01/03 12:21:35;;;;;;;5.73;3.93;;;13.20;56.80;;;;;;5054477;28;20448;-89
2023/01/03 12:24:06;;;;;;;3.97;3.20;;;13.40;57.10;;;;;;5057516;28;20547;-87
2023/01/03 12:26:36;;;;;;;3.97;3.27;;;13.50;57.00;;;;;;5078104;28;20451;-88
2023/01/03 12:29:09;;;;;;;4.40;3.20;;;13.40;56.70;;;;;;5070310;28;21071;-88
2023/01/03 12:31:41;;;;;;;8.23;4.03;;;13.60;57.00;;;;;;5089597;28;20478;-88
2023/01/03 12:34:20;;;;;;;4.30;3.50;;;13.80;56.30;;;;;;5094134;27;21078;-88
2023/01/03 12:36:55;;;;;;;4.53;3.43;;;13.80;55.80;;;;;;5068823;28;20485;-89
2023/01/03 12:39:35;;;;;;;3.20;2.90;;;14.00;55.50;;;;;;5067536;28;20465;-88
2023/01/03 12:42:07;;;;;;;4.27;2.90;;;13.90;55.60;;;;;;5087088;28;20541;-88
2023/01/03 12:44:39;;;;;;;3.50;2.97;;;14.20;55.20;;;;;;5073009;28;20968;-87
2023/01/03 12:47:19;;;;;;;4.57;3.27;;;14.40;54.80;;;;;;5089802;27;20470;-90
2023/01/03 12:49:53;;;;;;;3.53;2.83;;;14.70;54.20;;;;;;5066675;28;20435;-88
2023/01/03 12:52:24;;;;;;;7.07;3.20;;;14.80;53.60;;;;;;5053017;28;20442;-88
2023/01/03 12:54:57;;;;;;;4.70;3.13;;;14.70;53.80;;;;;;5054448;28;20968;-88
2023/01/03 12:57:46;;;;;;;4.03;2.60;;;14.90;53.70;;;;;;5070748;28;20466;-89
2023/01/03 13:00:46;;;;;;;3.40;3.07;;;15.00;53.20;;;;;;5070933;28;20437;-88
2023/01/03 13:03:22;;;;;;;4.07;2.87;;;14.70;53.40;;;;;;5061320;28;20944;-87
2023/01/03 13:05:51;;;;;;;6.00;2.70;;;14.40;53.70;;;;;;5066366;28;20441;-88
2023/01/03 13:08:29;;;;;;;4.87;3.20;;;14.40;54.60;;;;;;5066934;28;20938;-88
2023/01/03 13:11:00;;;;;;;4.00;2.90;;;14.40;54.40;;;;;;5091280;27;21093;-88
2023/01/03 13:13:27;;;;;;;35.13;12.23;;;14.30;54.40;;;;;;5074085;28;20517;-88
2023/01/03 13:15:54;;;;;;;6.87;3.80;;;13.70;55.10;;;;;;5100822;28;20459;-86
2023/01/03 13:18:41;;;;;;;6.60;3.83;;;13.70;55.90;;;;;;5074404;28;20505;-87
2023/01/03 13:21:53;;;;;;;8.80;2.80;;;13.60;55.60;;;;;;5057691;28;20435;-88
2023/01/03 13:24:41;;;;;;;3.93;3.10;;;13.80;56.00;;;;;;5013698;28;20549;-88
2023/01/03 13:27:22;;;;;;;2.73;2.53;;;14.20;56.30;;;;;;5089545;27;20459;-88
2023/01/03 13:29:57;;;;;;;5.47;3.23;;;14.30;55.30;;;;;;5088267;28;20443;-87
2023/01/03 13:32:26;;;;;;;3.43;2.60;;;14.50;55.20;;;;;;5054529;28;20518;-86
2023/01/03 13:35:28;;;;;;;5.40;2.17;;;14.60;54.80;;;;;;5089559;28;20951;-88
2023/01/03 13:38:00;;;;;;;7.30;4.93;;;14.30;54.50;;;;;;5083313;28;21000;-87
2023/01/03 13:40:29;;;;;;;3.10;2.67;;;14.20;54.00;;;;;;5071861;28;20520;-86
2023/01/03 13:43:13;;;;;;;5.10;4.60;;;14.40;53.50;;;;;;5085595;28;20806;-86
2023/01/03 13:45:53;;;;;;;3.20;2.50;;;14.50;52.50;;;;;;5091063;28;20443;-87
2023/01/03 13:48:32;;;;;;;3.77;2.40;;;14.60;52.60;;;;;;5066686;27;20467;-87
2023/01/03 13:51:44;;;;;;;7.40;3.57;;;14.70;51.40;;;;;;5068993;28;20861;-87
2023/01/03 13:54:44;;;;;;;14.03;7.63;;;14.50;51.50;;;;;;5056051;28;21037;-87
2023/01/03 13:57:35;;;;;;;11.03;7.40;;;14.20;51.70;;;;;;5072949;28;20565;-86
2023/01/03 14:00:09;;;;;;;6.77;6.17;;;14.10;51.90;;;;;;5070488;28;20458;-88
2023/01/03 14:03:10;;;;;;;3.10;2.87;;;13.90;51.80;;;;;;5078984;28;20443;-87
2023/01/03 14:05:58;;;;;;;6.47;3.13;;;14.00;52.30;;;;;;5083647;28;20453;-88